Mayer, AZ

1:53 PM MST on August 28, 2016 (GMT -0700)
Spring Valley off Hwy 69 | | Change Station

Elev 3980 ft 34.35 °N, 112.17 °W | Updated 16 seconds ago

Scattered Clouds
Scattered Clouds
83.5 °F
Feels Like 82 °F
N
4.0
Wind Variable Wind from NNE
Gusts 7.0 mph

Today
High -- | Low -- °F
--% Chance of Precip.
Yesterday
High -- | Low -- °F
Precip. -- in
Pressure 30.02 in
Visibility 10.0 miles
Clouds Scattered Clouds 4500 ft
Heat Index 82 °F
Dew Point 50 °F
Humidity 31%
Rainfall 0.00 in
Snow Depth Not available.
5:59 AM 6:59 PM
Waning Crescent, 13% visible
METAR KPRC 281953Z COR 05003KT 10SM SCT045 24/09 A3023 RMK AO2 SLP165 T02390094 $
Pressure 30.02 in
Visibility 10.0 miles
Clouds Scattered Clouds 4500 ft
Heat Index 82 °F
Dew Point 50 °F
Humidity 31%
Rainfall 0.00 in
Snow Depth Not available.
5:59 AM 6:59 PM
Waning Crescent, 13% visible
METAR KPRC 281953Z COR 05003KT 10SM SCT045 24/09 A3023 RMK AO2 SLP165 T02390094 $

10-Day Weather Forecast

Almanac

Astronomy

Aug. 28, 2016 Rise Set
Actual Time
Civil Twilight
Nautical Twilight
Astronomical Twilight
Moon
Length of Visible Light
Length of Day
Tomorrow will be .
, % of the Moon is Illuminated

Today's Extremes

State Highs State Lows

Community

WunderPhotos

Upload Photos

1,935,689 photos uploaded!

WunderBlog® & News

Nearby

Air Quality

  Air Quality AQ Index Pollutant
Not available.

Snow Depth

Station Depth Elevation

Earthquake Activity

City Distance Mag. Time & Date
Minimum magnitude displayed is 2.5.

Coastal Water Temperatures

Place Temperature

Stations

Nearby Weather Stations

Station Location Temp. Windchill Dew Point Humidity Wind Precip. Elev Updated Type
                   

Watches & Warnings

There are currently no watches in effect.